sensor_id;sensor_type;location;lat;lon;timestamp;P1;durP1;ratioP1;P2;durP2;ratioP2
68509;SDS011;55512;50.102;19.958;2023-09-18T00:01:47;8.20;;;5.30;;
68509;SDS011;55512;50.102;19.958;2023-09-18T00:04:13;7.80;;;5.00;;
68509;SDS011;55512;50.102;19.958;2023-09-18T00:06:39;8.50;;;5.00;;
68509;SDS011;55512;50.102;19.958;2023-09-18T00:09:04;7.90;;;4.70;;
68509;SDS011;55512;50.102;19.958;2023-09-18T00:11:31;8.80;;;5.70;;
68509;SDS011;55512;50.102;19.958;2023-09-18T00:13:57;9.00;;;5.20;;
68509;SDS011;55512;50.102;19.958;2023-09-18T00:16:22;8.40;;;5.40;;
68509;SDS011;55512;50.102;19.958;2023-09-18T00:18:50;9.10;;;5.20;;
68509;SDS011;55512;50.102;19.958;2023-09-18T00:21:15;8.40;;;5.30;;
68509;SDS011;55512;50.102;19.958;2023-09-18T00:23:41;7.60;;;4.90;;
68509;SDS011;55512;50.102;19.958;2023-09-18T00:26:07;9.30;;;5.20;;
68509;SDS011;55512;50.102;19.958;2023-09-18T00:28:32;8.20;;;4.90;;
68509;SDS011;55512;50.102;19.958;2023-09-18T00:30:58;8.80;;;5.30;;
68509;SDS011;55512;50.102;19.958;2023-09-18T00:33:23;9.40;;;5.30;;
68509;SDS011;55512;50.102;19.958;2023-09-18T00:35:49;9.80;;;5.30;;
68509;SDS011;55512;50.102;19.958;2023-09-18T00:38:16;7.50;;;5.10;;
68509;SDS011;55512;50.102;19.958;2023-09-18T00:40:42;9.20;;;5.30;;
68509;SDS011;55512;50.102;19.958;2023-09-18T00:43:08;10.40;;;5.50;;
68509;SDS011;55512;50.102;19.958;2023-09-18T00:45:40;9.30;;;5.10;;
68509;SDS011;55512;50.102;19.958;2023-09-18T00:48:09;8.80;;;5.50;;
68509;SDS011;55512;50.102;19.958;2023-09-18T00:50:35;8.00;;;5.30;;
68509;SDS011;55512;50.102;19.958;2023-09-18T00:53:02;8.70;;;5.30;;
68509;SDS011;55512;50.102;19.958;2023-09-18T00:55:28;10.40;;;5.70;;
68509;SDS011;55512;50.102;19.958;2023-09-18T00:57:56;9.10;;;5.60;;
68509;SDS011;55512;50.102;19.958;2023-09-18T01:00:22;8.70;;;5.30;;
68509;SDS011;55512;50.102;19.958;2023-09-18T01:02:48;8.70;;;5.50;;
68509;SDS011;55512;50.102;19.958;2023-09-18T01:05:14;8.40;;;5.60;;
68509;SDS011;55512;50.102;19.958;2023-09-18T01:07:42;9.80;;;5.70;;
68509;SDS011;55512;50.102;19.958;2023-09-18T01:10:09;11.10;;;5.70;;
68509;SDS011;55512;50.102;19.958;2023-09-18T01:12:53;10.00;;;6.00;;
68509;SDS011;55512;50.102;19.958;2023-09-18T01:15:30;9.20;;;5.00;;
68509;SDS011;55512;50.102;19.958;2023-09-18T01:18:02;8.60;;;5.60;;
68509;SDS011;55512;50.102;19.958;2023-09-18T01:20:28;8.30;;;5.30;;
68509;SDS011;55512;50.102;19.958;2023-09-18T01:22:53;10.60;;;5.50;;
68509;SDS011;55512;50.102;19.958;2023-09-18T01:25:19;9.40;;;5.40;;
68509;SDS011;55512;50.102;19.958;2023-09-18T01:27:44;10.20;;;5.80;;
68509;SDS011;55512;50.102;19.958;2023-09-18T01:30:10;9.10;;;5.40;;
68509;SDS011;55512;50.102;19.958;2023-09-18T01:32:38;8.80;;;5.70;;
68509;SDS011;55512;50.102;19.958;2023-09-18T01:35:06;9.40;;;5.50;;
68509;SDS011;55512;50.102;19.958;2023-09-18T01:37:33;8.90;;;5.40;;
68509;SDS011;55512;50.102;19.958;2023-09-18T01:40:01;8.80;;;5.60;;
68509;SDS011;55512;50.102;19.958;2023-09-18T01:42:32;8.40;;;5.40;;
68509;SDS011;55512;50.102;19.958;2023-09-18T01:44:59;8.90;;;5.80;;
68509;SDS011;55512;50.102;19.958;2023-09-18T01:47:24;9.00;;;5.50;;
68509;SDS011;55512;50.102;19.958;2023-09-18T01:49:52;8.60;;;5.70;;
68509;SDS011;55512;50.102;19.958;2023-09-18T01:52:18;9.30;;;5.70;;
68509;SDS011;55512;50.102;19.958;2023-09-18T01:54:43;8.70;;;5.20;;
68509;SDS011;55512;50.102;19.958;2023-09-18T01:57:09;8.70;;;5.40;;
68509;SDS011;55512;50.102;19.958;2023-09-18T01:59:35;10.70;;;5.80;;
68509;SDS011;55512;50.102;19.958;2023-09-18T02:02:00;8.90;;;5.20;;
68509;SDS011;55512;50.102;19.958;2023-09-18T02:04:29;9.70;;;6.10;;
68509;SDS011;55512;50.102;19.958;2023-09-18T02:06:54;9.30;;;5.80;;
68509;SDS011;55512;50.102;19.958;2023-09-18T02:09:22;8.40;;;5.70;;
68509;SDS011;55512;50.102;19.958;2023-09-18T02:11:47;8.80;;;6.50;;
68509;SDS011;55512;50.102;19.958;2023-09-18T02:14:14;9.50;;;5.90;;
68509;SDS011;55512;50.102;19.958;2023-09-18T02:16:41;10.90;;;5.60;;
68509;SDS011;55512;50.102;19.958;2023-09-18T02:19:09;9.40;;;6.30;;
68509;SDS011;55512;50.102;19.958;2023-09-18T02:21:36;8.90;;;5.80;;
68509;SDS011;55512;50.102;19.958;2023-09-18T02:24:02;8.80;;;5.20;;
68509;SDS011;55512;50.102;19.958;2023-09-18T02:26:28;9.80;;;6.30;;
68509;SDS011;55512;50.102;19.958;2023-09-18T02:28:56;9.20;;;5.80;;
68509;SDS011;55512;50.102;19.958;2023-09-18T02:31:25;9.20;;;5.70;;
68509;SDS011;55512;50.102;19.958;2023-09-18T02:33:51;10.70;;;6.40;;
68509;SDS011;55512;50.102;19.958;2023-09-18T02:36:16;9.80;;;5.70;;
68509;SDS011;55512;50.102;19.958;2023-09-18T02:38:42;9.80;;;6.00;;
68509;SDS011;55512;50.102;19.958;2023-09-18T02:41:08;10.30;;;5.90;;
68509;SDS011;55512;50.102;19.958;2023-09-18T02:43:34;10.40;;;5.70;;
68509;SDS011;55512;50.102;19.958;2023-09-18T02:45:59;10.40;;;6.30;;
68509;SDS011;55512;50.102;19.958;2023-09-18T02:48:25;9.60;;;6.00;;
68509;SDS011;55512;50.102;19.958;2023-09-18T02:50:50;8.90;;;5.10;;
68509;SDS011;55512;50.102;19.958;2023-09-18T02:53:19;8.60;;;5.30;;
68509;SDS011;55512;50.102;19.958;2023-09-18T02:55:54;8.60;;;5.60;;
68509;SDS011;55512;50.102;19.958;2023-09-18T02:58:21;10.90;;;6.20;;
68509;SDS011;55512;50.102;19.958;2023-09-18T03:00:50;9.70;;;5.60;;
68509;SDS011;55512;50.102;19.958;2023-09-18T03:03:16;8.70;;;6.00;;
68509;SDS011;55512;50.102;19.958;2023-09-18T03:05:43;9.40;;;5.50;;
68509;SDS011;55512;50.102;19.958;2023-09-18T03:08:10;10.20;;;6.20;;
68509;SDS011;55512;50.102;19.958;2023-09-18T03:10:40;9.80;;;6.10;;
68509;SDS011;55512;50.102;19.958;2023-09-18T03:13:07;9.60;;;5.60;;
68509;SDS011;55512;50.102;19.958;2023-09-18T03:15:34;9.70;;;5.80;;
68509;SDS011;55512;50.102;19.958;2023-09-18T03:18:02;9.40;;;5.60;;
68509;SDS011;55512;50.102;19.958;2023-09-18T03:20:30;11.00;;;5.90;;
68509;SDS011;55512;50.102;19.958;2023-09-18T03:22:57;9.80;;;5.60;;
68509;SDS011;55512;50.102;19.958;2023-09-18T03:25:23;9.80;;;5.70;;
68509;SDS011;55512;50.102;19.958;2023-09-18T03:27:51;10.30;;;5.60;;
68509;SDS011;55512;50.102;19.958;2023-09-18T03:30:19;9.50;;;6.50;;
68509;SDS011;55512;50.102;19.958;2023-09-18T03:32:45;9.50;;;6.10;;
68509;SDS011;55512;50.102;19.958;2023-09-18T03:35:11;11.10;;;6.00;;
68509;SDS011;55512;50.102;19.958;2023-09-18T03:37:50;9.00;;;6.20;;
68509;SDS011;55512;50.102;19.958;2023-09-18T03:40:18;13.20;;;6.80;;
68509;SDS011;55512;50.102;19.958;2023-09-18T03:42:44;12.90;;;7.50;;
68509;SDS011;55512;50.102;19.958;2023-09-18T03:45:10;9.90;;;6.30;;
68509;SDS011;55512;50.102;19.958;2023-09-18T03:47:37;10.00;;;5.80;;
68509;SDS011;55512;50.102;19.958;2023-09-18T03:50:06;8.80;;;6.20;;
68509;SDS011;55512;50.102;19.958;2023-09-18T03:52:33;10.20;;;6.50;;
68509;SDS011;55512;50.102;19.958;2023-09-18T03:54:58;10.90;;;6.30;;
68509;SDS011;55512;50.102;19.958;2023-09-18T03:57:24;10.10;;;6.90;;
68509;SDS011;55512;50.102;19.958;2023-09-18T03:59:49;10.80;;;6.00;;
68509;SDS011;55512;50.102;19.958;2023-09-18T04:02:15;11.10;;;7.10;;
68509;SDS011;55512;50.102;19.958;2023-09-18T04:04:40;12.70;;;6.70;;
68509;SDS011;55512;50.102;19.958;2023-09-18T04:07:06;12.90;;;6.80;;
68509;SDS011;55512;50.102;19.958;2023-09-18T04:09:32;11.70;;;7.10;;
68509;SDS011;55512;50.102;19.958;2023-09-18T04:12:00;13.40;;;7.60;;
68509;SDS011;55512;50.102;19.958;2023-09-18T04:14:26;10.80;;;6.70;;
68509;SDS011;55512;50.102;19.958;2023-09-18T04:16:52;11.10;;;6.70;;
68509;SDS011;55512;50.102;19.958;2023-09-18T04:19:17;11.70;;;7.60;;
68509;SDS011;55512;50.102;19.958;2023-09-18T04:21:43;13.30;;;7.90;;
68509;SDS011;55512;50.102;19.958;2023-09-18T04:24:08;14.30;;;7.80;;
68509;SDS011;55512;50.102;19.958;2023-09-18T04:26:34;12.40;;;6.90;;
68509;SDS011;55512;50.102;19.958;2023-09-18T04:29:00;14.30;;;7.80;;
68509;SDS011;55512;50.102;19.958;2023-09-18T04:31:26;15.60;;;8.80;;
68509;SDS011;55512;50.102;19.958;2023-09-18T04:33:53;15.20;;;8.80;;
68509;SDS011;55512;50.102;19.958;2023-09-18T04:36:19;12.80;;;7.90;;
68509;SDS011;55512;50.102;19.958;2023-09-18T04:38:45;15.30;;;8.50;;
68509;SDS011;55512;50.102;19.958;2023-09-18T04:41:10;14.80;;;9.70;;
68509;SDS011;55512;50.102;19.958;2023-09-18T04:43:39;13.80;;;8.90;;
68509;SDS011;55512;50.102;19.958;2023-09-18T04:46:04;15.70;;;8.90;;
68509;SDS011;55512;50.102;19.958;2023-09-18T04:48:30;13.20;;;8.00;;
68509;SDS011;55512;50.102;19.958;2023-09-18T04:50:58;14.70;;;8.30;;
68509;SDS011;55512;50.102;19.958;2023-09-18T04:53:24;15.00;;;9.20;;
68509;SDS011;55512;50.102;19.958;2023-09-18T04:55:50;14.80;;;9.10;;
68509;SDS011;55512;50.102;19.958;2023-09-18T04:58:16;18.50;;;9.10;;
68509;SDS011;55512;50.102;19.958;2023-09-18T05:00:42;16.80;;;8.80;;
68509;SDS011;55512;50.102;19.958;2023-09-18T05:03:09;20.10;;;9.70;;
68509;SDS011;55512;50.102;19.958;2023-09-18T05:05:35;17.90;;;10.00;;
68509;SDS011;55512;50.102;19.958;2023-09-18T05:08:03;16.60;;;9.70;;
68509;SDS011;55512;50.102;19.958;2023-09-18T05:10:33;23.60;;;10.60;;
68509;SDS011;55512;50.102;19.958;2023-09-18T05:12:59;20.40;;;10.20;;
68509;SDS011;55512;50.102;19.958;2023-09-18T05:15:25;21.00;;;10.00;;
68509;SDS011;55512;50.102;19.958;2023-09-18T05:17:51;21.30;;;10.50;;
68509;SDS011;55512;50.102;19.958;2023-09-18T05:20:21;20.80;;;9.70;;
68509;SDS011;55512;50.102;19.958;2023-09-18T05:22:50;22.70;;;11.80;;
68509;SDS011;55512;50.102;19.958;2023-09-18T05:25:20;18.00;;;10.00;;
68509;SDS011;55512;50.102;19.958;2023-09-18T05:27:53;21.90;;;11.60;;
68509;SDS011;55512;50.102;19.958;2023-09-18T05:30:30;24.10;;;10.70;;
68509;SDS011;55512;50.102;19.958;2023-09-18T05:33:02;18.20;;;9.60;;
68509;SDS011;55512;50.102;19.958;2023-09-18T05:35:35;18.40;;;9.10;;
68509;SDS011;55512;50.102;19.958;2023-09-18T05:38:09;18.70;;;9.20;;
68509;SDS011;55512;50.102;19.958;2023-09-18T05:40:36;16.10;;;9.10;;
68509;SDS011;55512;50.102;19.958;2023-09-18T05:43:02;19.00;;;10.00;;
68509;SDS011;55512;50.102;19.958;2023-09-18T05:45:27;16.60;;;9.00;;
68509;SDS011;55512;50.102;19.958;2023-09-18T05:47:54;14.90;;;9.50;;
68509;SDS011;55512;50.102;19.958;2023-09-18T05:50:26;19.70;;;9.20;;
68509;SDS011;55512;50.102;19.958;2023-09-18T05:52:54;19.00;;;9.10;;
68509;SDS011;55512;50.102;19.958;2023-09-18T05:55:19;16.00;;;8.60;;
68509;SDS011;55512;50.102;19.958;2023-09-18T05:57:45;19.50;;;9.20;;
68509;SDS011;55512;50.102;19.958;2023-09-18T06:00:11;17.90;;;8.70;;
68509;SDS011;55512;50.102;19.958;2023-09-18T06:02:39;20.60;;;10.40;;
68509;SDS011;55512;50.102;19.958;2023-09-18T06:05:05;24.10;;;12.20;;
68509;SDS011;55512;50.102;19.958;2023-09-18T06:07:32;25.00;;;12.70;;
68509;SDS011;55512;50.102;19.958;2023-09-18T06:09:58;30.10;;;14.30;;
68509;SDS011;55512;50.102;19.958;2023-09-18T06:12:24;29.40;;;13.60;;
68509;SDS011;55512;50.102;19.958;2023-09-18T06:14:51;26.50;;;13.30;;
68509;SDS011;55512;50.102;19.958;2023-09-18T06:17:16;26.80;;;13.40;;
68509;SDS011;55512;50.102;19.958;2023-09-18T06:19:43;27.00;;;13.00;;
68509;SDS011;55512;50.102;19.958;2023-09-18T06:22:09;30.00;;;14.20;;
68509;SDS011;55512;50.102;19.958;2023-09-18T06:24:35;25.10;;;12.20;;
68509;SDS011;55512;50.102;19.958;2023-09-18T06:27:01;25.10;;;10.70;;
68509;SDS011;55512;50.102;19.958;2023-09-18T06:29:29;19.80;;;11.60;;
68509;SDS011;55512;50.102;19.958;2023-09-18T06:31:55;23.10;;;11.50;;
68509;SDS011;55512;50.102;19.958;2023-09-18T06:34:21;22.40;;;11.90;;
68509;SDS011;55512;50.102;19.958;2023-09-18T06:36:46;24.40;;;11.90;;
68509;SDS011;55512;50.102;19.958;2023-09-18T06:39:11;20.50;;;11.60;;
68509;SDS011;55512;50.102;19.958;2023-09-18T06:41:37;23.90;;;11.10;;
68509;SDS011;55512;50.102;19.958;2023-09-18T06:44:02;23.30;;;11.80;;
68509;SDS011;55512;50.102;19.958;2023-09-18T06:46:31;22.40;;;11.70;;
68509;SDS011;55512;50.102;19.958;2023-09-18T06:48:57;23.70;;;11.40;;
68509;SDS011;55512;50.102;19.958;2023-09-18T06:51:23;21.10;;;11.20;;
68509;SDS011;55512;50.102;19.958;2023-09-18T06:53:48;22.70;;;11.10;;
68509;SDS011;55512;50.102;19.958;2023-09-18T06:56:14;22.80;;;12.30;;
68509;SDS011;55512;50.102;19.958;2023-09-18T06:58:39;20.20;;;11.70;;
68509;SDS011;55512;50.102;19.958;2023-09-18T07:01:05;20.60;;;10.50;;
68509;SDS011;55512;50.102;19.958;2023-09-18T07:03:35;18.80;;;10.00;;
68509;SDS011;55512;50.102;19.958;2023-09-18T07:06:02;23.00;;;10.60;;
68509;SDS011;55512;50.102;19.958;2023-09-18T07:08:29;21.60;;;10.70;;
68509;SDS011;55512;50.102;19.958;2023-09-18T07:10:55;16.50;;;10.10;;
68509;SDS011;55512;50.102;19.958;2023-09-18T07:13:20;16.40;;;10.00;;
68509;SDS011;55512;50.102;19.958;2023-09-18T07:15:46;15.60;;;9.80;;
68509;SDS011;55512;50.102;19.958;2023-09-18T07:18:13;16.20;;;10.10;;
68509;SDS011;55512;50.102;19.958;2023-09-18T07:20:48;16.10;;;9.40;;
68509;SDS011;55512;50.102;19.958;2023-09-18T07:23:13;14.00;;;9.90;;
68509;SDS011;55512;50.102;19.958;2023-09-18T07:25:39;14.00;;;8.70;;
68509;SDS011;55512;50.102;19.958;2023-09-18T07:28:08;17.00;;;9.70;;
68509;SDS011;55512;50.102;19.958;2023-09-18T07:30:34;17.20;;;9.90;;
68509;SDS011;55512;50.102;19.958;2023-09-18T07:33:01;14.50;;;8.70;;
68509;SDS011;55512;50.102;19.958;2023-09-18T07:35:26;16.30;;;9.40;;
68509;SDS011;55512;50.102;19.958;2023-09-18T07:37:52;18.10;;;9.90;;
68509;SDS011;55512;50.102;19.958;2023-09-18T07:40:18;16.00;;;10.40;;
68509;SDS011;55512;50.102;19.958;2023-09-18T07:42:43;14.00;;;9.60;;
68509;SDS011;55512;50.102;19.958;2023-09-18T07:45:10;15.50;;;9.60;;
68509;SDS011;55512;50.102;19.958;2023-09-18T07:47:36;19.00;;;9.90;;
68509;SDS011;55512;50.102;19.958;2023-09-18T07:50:01;18.40;;;9.70;;
68509;SDS011;55512;50.102;19.958;2023-09-18T07:52:28;15.20;;;9.20;;
68509;SDS011;55512;50.102;19.958;2023-09-18T07:54:55;14.10;;;9.10;;
68509;SDS011;55512;50.102;19.958;2023-09-18T07:57:20;13.60;;;9.50;;
68509;SDS011;55512;50.102;19.958;2023-09-18T07:59:48;15.40;;;8.40;;
68509;SDS011;55512;50.102;19.958;2023-09-18T08:02:13;15.90;;;9.20;;
68509;SDS011;55512;50.102;19.958;2023-09-18T08:04:39;14.50;;;8.90;;
68509;SDS011;55512;50.102;19.958;2023-09-18T08:07:04;13.10;;;8.60;;
68509;SDS011;55512;50.102;19.958;2023-09-18T08:09:33;12.40;;;8.20;;
68509;SDS011;55512;50.102;19.958;2023-09-18T08:12:06;15.80;;;9.20;;
68509;SDS011;55512;50.102;19.958;2023-09-18T08:14:32;12.60;;;8.10;;
68509;SDS011;55512;50.102;19.958;2023-09-18T08:17:00;13.80;;;8.00;;
68509;SDS011;55512;50.102;19.958;2023-09-18T08:19:28;11.70;;;7.80;;
68509;SDS011;55512;50.102;19.958;2023-09-18T08:21:54;20.50;;;8.80;;
68509;SDS011;55512;50.102;19.958;2023-09-18T08:24:21;14.40;;;8.50;;
68509;SDS011;55512;50.102;19.958;2023-09-18T08:26:48;13.30;;;7.90;;
68509;SDS011;55512;50.102;19.958;2023-09-18T08:29:13;12.60;;;8.40;;
68509;SDS011;55512;50.102;19.958;2023-09-18T08:31:39;15.50;;;8.10;;
68509;SDS011;55512;50.102;19.958;2023-09-18T08:34:04;10.90;;;7.60;;
68509;SDS011;55512;50.102;19.958;2023-09-18T08:36:30;13.10;;;7.60;;
68509;SDS011;55512;50.102;19.958;2023-09-18T08:38:56;12.10;;;7.80;;
68509;SDS011;55512;50.102;19.958;2023-09-18T08:41:23;13.00;;;7.90;;
68509;SDS011;55512;50.102;19.958;2023-09-18T08:43:53;13.90;;;8.50;;
68509;SDS011;55512;50.102;19.958;2023-09-18T08:46:25;14.40;;;8.60;;
68509;SDS011;55512;50.102;19.958;2023-09-18T08:48:51;13.10;;;8.00;;
68509;SDS011;55512;50.102;19.958;2023-09-18T08:51:18;12.00;;;8.10;;
68509;SDS011;55512;50.102;19.958;2023-09-18T08:53:44;12.60;;;7.90;;
68509;SDS011;55512;50.102;19.958;2023-09-18T08:56:12;11.60;;;7.50;;
68509;SDS011;55512;50.102;19.958;2023-09-18T08:58:39;12.70;;;8.40;;
68509;SDS011;55512;50.102;19.958;2023-09-18T09:01:08;14.20;;;8.70;;
68509;SDS011;55512;50.102;19.958;2023-09-18T09:03:38;15.40;;;8.10;;
68509;SDS011;55512;50.102;19.958;2023-09-18T09:06:06;12.40;;;8.00;;
68509;SDS011;55512;50.102;19.958;2023-09-18T09:08:33;13.30;;;8.00;;
68509;SDS011;55512;50.102;19.958;2023-09-18T09:10:59;10.80;;;6.90;;
68509;SDS011;55512;50.102;19.958;2023-09-18T09:13:25;10.40;;;7.60;;
68509;SDS011;55512;50.102;19.958;2023-09-18T09:15:53;11.90;;;8.20;;
68509;SDS011;55512;50.102;19.958;2023-09-18T09:18:22;10.70;;;7.30;;
68509;SDS011;55512;50.102;19.958;2023-09-18T09:21:07;11.70;;;7.30;;
68509;SDS011;55512;50.102;19.958;2023-09-18T09:24:02;11.60;;;7.60;;
68509;SDS011;55512;50.102;19.958;2023-09-18T09:26:28;14.50;;;7.70;;
68509;SDS011;55512;50.102;19.958;2023-09-18T09:28:53;11.70;;;7.70;;
68509;SDS011;55512;50.102;19.958;2023-09-18T09:31:27;16.00;;;7.80;;
68509;SDS011;55512;50.102;19.958;2023-09-18T09:33:54;10.50;;;6.90;;
68509;SDS011;55512;50.102;19.958;2023-09-18T09:36:22;14.00;;;7.50;;
68509;SDS011;55512;50.102;19.958;2023-09-18T09:38:48;10.40;;;7.20;;
68509;SDS011;55512;50.102;19.958;2023-09-18T09:41:15;11.10;;;8.00;;
68509;SDS011;55512;50.102;19.958;2023-09-18T09:43:43;11.30;;;7.20;;
68509;SDS011;55512;50.102;19.958;2023-09-18T09:46:16;12.20;;;7.60;;
68509;SDS011;55512;50.102;19.958;2023-09-18T09:49:04;12.20;;;7.90;;
68509;SDS011;55512;50.102;19.958;2023-09-18T09:51:30;17.30;;;8.30;;
68509;SDS011;55512;50.102;19.958;2023-09-18T09:53:58;11.20;;;7.40;;
68509;SDS011;55512;50.102;19.958;2023-09-18T09:56:46;11.00;;;7.50;;
68509;SDS011;55512;50.102;19.958;2023-09-18T09:59:21;16.90;;;8.50;;
68509;SDS011;55512;50.102;19.958;2023-09-18T10:01:48;12.90;;;8.20;;
68509;SDS011;55512;50.102;19.958;2023-09-18T10:04:17;14.40;;;8.30;;
68509;SDS011;55512;50.102;19.958;2023-09-18T10:06:45;12.70;;;8.10;;
68509;SDS011;55512;50.102;19.958;2023-09-18T10:09:16;15.90;;;8.20;;
68509;SDS011;55512;50.102;19.958;2023-09-18T10:11:46;13.60;;;8.20;;
68509;SDS011;55512;50.102;19.958;2023-09-18T10:14:19;11.50;;;7.60;;
68509;SDS011;55512;50.102;19.958;2023-09-18T10:16:50;11.10;;;7.20;;
68509;SDS011;55512;50.102;19.958;2023-09-18T10:19:28;11.30;;;8.20;;
68509;SDS011;55512;50.102;19.958;2023-09-18T10:22:30;18.20;;;9.00;;
68509;SDS011;55512;50.102;19.958;2023-09-18T10:25:14;12.80;;;7.50;;
68509;SDS011;55512;50.102;19.958;2023-09-18T10:27:47;10.30;;;7.70;;
68509;SDS011;55512;50.102;19.958;2023-09-18T10:30:24;14.60;;;8.40;;
68509;SDS011;55512;50.102;19.958;2023-09-18T10:32:52;12.60;;;8.20;;
68509;SDS011;55512;50.102;19.958;2023-09-18T10:35:18;11.40;;;8.50;;
68509;SDS011;55512;50.102;19.958;2023-09-18T10:37:46;11.10;;;7.80;;
68509;SDS011;55512;50.102;19.958;2023-09-18T10:40:17;11.20;;;8.20;;
68509;SDS011;55512;50.102;19.958;2023-09-18T10:42:46;11.60;;;7.90;;
68509;SDS011;55512;50.102;19.958;2023-09-18T10:45:13;11.40;;;7.80;;
68509;SDS011;55512;50.102;19.958;2023-09-18T10:47:42;10.00;;;6.90;;
68509;SDS011;55512;50.102;19.958;2023-09-18T10:50:26;10.30;;;7.50;;
68509;SDS011;55512;50.102;19.958;2023-09-18T10:52:52;11.20;;;7.30;;
68509;SDS011;55512;50.102;19.958;2023-09-18T10:55:18;10.00;;;6.70;;
68509;SDS011;55512;50.102;19.958;2023-09-18T10:57:55;11.60;;;7.90;;
68509;SDS011;55512;50.102;19.958;2023-09-18T11:00:25;10.40;;;7.70;;
68509;SDS011;55512;50.102;19.958;2023-09-18T11:02:53;8.90;;;6.60;;
68509;SDS011;55512;50.102;19.958;2023-09-18T11:05:33;10.70;;;6.60;;
68509;SDS011;55512;50.102;19.958;2023-09-18T11:08:26;11.50;;;7.80;;
68509;SDS011;55512;50.102;19.958;2023-09-18T11:11:06;9.90;;;7.40;;
68509;SDS011;55512;50.102;19.958;2023-09-18T11:13:54;8.60;;;6.60;;
68509;SDS011;55512;50.102;19.958;2023-09-18T11:21:29;10.80;;;7.70;;
68509;SDS011;55512;50.102;19.958;2023-09-18T11:24:01;10.70;;;8.00;;
68509;SDS011;55512;50.102;19.958;2023-09-18T11:26:36;11.30;;;8.10;;
68509;SDS011;55512;50.102;19.958;2023-09-18T11:29:14;11.50;;;7.30;;
68509;SDS011;55512;50.102;19.958;2023-09-18T11:31:43;12.30;;;8.40;;
68509;SDS011;55512;50.102;19.958;2023-09-18T11:34:23;11.40;;;7.80;;
68509;SDS011;55512;50.102;19.958;2023-09-18T11:36:57;12.10;;;8.30;;
68509;SDS011;55512;50.102;19.958;2023-09-18T11:39:41;11.80;;;8.40;;
68509;SDS011;55512;50.102;19.958;2023-09-18T11:42:20;12.30;;;8.30;;
68509;SDS011;55512;50.102;19.958;2023-09-18T11:44:52;18.30;;;9.50;;
68509;SDS011;55512;50.102;19.958;2023-09-18T11:47:23;18.60;;;10.50;;
68509;SDS011;55512;50.102;19.958;2023-09-18T11:49:52;12.90;;;8.60;;
68509;SDS011;55512;50.102;19.958;2023-09-18T11:52:24;11.00;;;8.30;;
68509;SDS011;55512;50.102;19.958;2023-09-18T11:54:54;10.80;;;8.20;;
68509;SDS011;55512;50.102;19.958;2023-09-18T11:57:21;10.40;;;7.30;;
68509;SDS011;55512;50.102;19.958;2023-09-18T11:59:47;9.30;;;6.70;;
68509;SDS011;55512;50.102;19.958;2023-09-18T12:02:14;10.30;;;7.00;;
68509;SDS011;55512;50.102;19.958;2023-09-18T12:04:53;11.20;;;6.00;;
68509;SDS011;55512;50.102;19.958;2023-09-18T12:07:19;10.00;;;6.80;;
68509;SDS011;55512;50.102;19.958;2023-09-18T12:09:46;8.50;;;6.40;;
68509;SDS011;55512;50.102;19.958;2023-09-18T12:12:11;12.00;;;6.50;;
68509;SDS011;55512;50.102;19.958;2023-09-18T12:14:39;9.30;;;6.40;;
68509;SDS011;55512;50.102;19.958;2023-09-18T12:17:07;9.30;;;6.40;;
68509;SDS011;55512;50.102;19.958;2023-09-18T12:19:33;9.10;;;6.40;;
68509;SDS011;55512;50.102;19.958;2023-09-18T12:22:00;9.50;;;6.00;;
68509;SDS011;55512;50.102;19.958;2023-09-18T12:24:26;8.40;;;6.30;;
68509;SDS011;55512;50.102;19.958;2023-09-18T12:26:53;9.50;;;6.80;;
68509;SDS011;55512;50.102;19.958;2023-09-18T12:29:20;15.60;;;7.20;;
68509;SDS011;55512;50.102;19.958;2023-09-18T12:31:46;9.30;;;6.00;;
68509;SDS011;55512;50.102;19.958;2023-09-18T12:34:20;10.20;;;6.00;;
68509;SDS011;55512;50.102;19.958;2023-09-18T12:36:47;13.40;;;6.50;;
68509;SDS011;55512;50.102;19.958;2023-09-18T12:39:14;10.20;;;6.30;;
68509;SDS011;55512;50.102;19.958;2023-09-18T12:41:46;9.90;;;6.50;;
68509;SDS011;55512;50.102;19.958;2023-09-18T12:44:13;7.90;;;5.70;;
68509;SDS011;55512;50.102;19.958;2023-09-18T12:46:41;7.90;;;6.10;;
68509;SDS011;55512;50.102;19.958;2023-09-18T12:51:44;9.30;;;6.30;;
68509;SDS011;55512;50.102;19.958;2023-09-18T12:54:09;8.10;;;5.90;;
68509;SDS011;55512;50.102;19.958;2023-09-18T12:56:43;9.20;;;6.50;;
68509;SDS011;55512;50.102;19.958;2023-09-18T12:59:09;9.20;;;6.30;;
68509;SDS011;55512;50.102;19.958;2023-09-18T13:01:35;10.60;;;6.40;;
68509;SDS011;55512;50.102;19.958;2023-09-18T13:04:03;8.60;;;5.80;;
68509;SDS011;55512;50.102;19.958;2023-09-18T13:06:31;9.70;;;6.00;;
68509;SDS011;55512;50.102;19.958;2023-09-18T13:09:15;8.30;;;5.90;;
68509;SDS011;55512;50.102;19.958;2023-09-18T13:11:55;7.60;;;5.80;;
68509;SDS011;55512;50.102;19.958;2023-09-18T13:14:22;10.80;;;6.70;;
68509;SDS011;55512;50.102;19.958;2023-09-18T13:16:48;10.20;;;6.00;;
68509;SDS011;55512;50.102;19.958;2023-09-18T13:19:14;8.70;;;6.00;;
68509;SDS011;55512;50.102;19.958;2023-09-18T13:21:46;8.80;;;6.00;;
68509;SDS011;55512;50.102;19.958;2023-09-18T13:26:55;8.90;;;6.40;;
68509;SDS011;55512;50.102;19.958;2023-09-18T13:29:24;8.00;;;5.90;;
68509;SDS011;55512;50.102;19.958;2023-09-18T13:31:53;9.30;;;6.10;;
68509;SDS011;55512;50.102;19.958;2023-09-18T13:34:19;8.70;;;6.00;;
68509;SDS011;55512;50.102;19.958;2023-09-18T13:36:45;9.00;;;5.90;;
68509;SDS011;55512;50.102;19.958;2023-09-18T13:39:11;9.40;;;6.00;;
68509;SDS011;55512;50.102;19.958;2023-09-18T13:41:38;8.00;;;5.80;;
68509;SDS011;55512;50.102;19.958;2023-09-18T13:44:06;7.20;;;5.40;;
68509;SDS011;55512;50.102;19.958;2023-09-18T13:46:32;9.10;;;5.70;;
68509;SDS011;55512;50.102;19.958;2023-09-18T13:49:02;9.10;;;6.10;;
68509;SDS011;55512;50.102;19.958;2023-09-18T13:51:30;10.30;;;5.80;;
68509;SDS011;55512;50.102;19.958;2023-09-18T13:53:57;8.90;;;6.10;;
68509;SDS011;55512;50.102;19.958;2023-09-18T13:56:23;7.60;;;5.40;;
68509;SDS011;55512;50.102;19.958;2023-09-18T13:58:54;8.50;;;5.70;;
68509;SDS011;55512;50.102;19.958;2023-09-18T14:01:21;8.90;;;5.00;;
68509;SDS011;55512;50.102;19.958;2023-09-18T14:03:53;8.00;;;5.00;;
68509;SDS011;55512;50.102;19.958;2023-09-18T14:06:19;7.20;;;4.70;;
68509;SDS011;55512;50.102;19.958;2023-09-18T14:08:45;7.60;;;4.60;;
68509;SDS011;55512;50.102;19.958;2023-09-18T14:11:10;8.30;;;5.00;;
68509;SDS011;55512;50.102;19.958;2023-09-18T14:13:36;6.90;;;4.90;;
68509;SDS011;55512;50.102;19.958;2023-09-18T14:16:01;7.10;;;5.50;;
68509;SDS011;55512;50.102;19.958;2023-09-18T14:18:29;7.90;;;5.20;;
68509;SDS011;55512;50.102;19.958;2023-09-18T14:20:54;16.00;;;6.70;;
68509;SDS011;55512;50.102;19.958;2023-09-18T14:23:20;9.10;;;5.60;;
68509;SDS011;55512;50.102;19.958;2023-09-18T14:25:45;8.10;;;5.90;;
68509;SDS011;55512;50.102;19.958;2023-09-18T14:28:11;8.30;;;5.90;;
68509;SDS011;55512;50.102;19.958;2023-09-18T14:30:36;7.70;;;5.20;;
68509;SDS011;55512;50.102;19.958;2023-09-18T14:33:02;7.10;;;5.20;;
68509;SDS011;55512;50.102;19.958;2023-09-18T14:35:28;9.00;;;5.50;;
68509;SDS011;55512;50.102;19.958;2023-09-18T14:37:53;8.40;;;5.80;;
68509;SDS011;55512;50.102;19.958;2023-09-18T14:40:19;7.40;;;5.80;;